Time;durP1;ratioP1;P1;durP2;ratioP2;P2;SDS_P1;SDS_P2;PMS_P1;PMS_P2;Temp;Humidity;BMP_temperature;BMP_pressure;BME280_temperature;BME280_humidity;BME280_pressure;Samples;Min_cycle;Max_cycle;Signal;HPM_P1;HPM_P2
2021/01/19 00:00:25;;;;;;;56.90;3.72;;;2.20;1.00;;;;;;5093550;28;20208;-67
2021/01/19 00:02:52;;;;;;;57.38;4.15;;;2.10;1.00;;;;;;5093152;28;20292;-67
2021/01/19 00:05:19;;;;;;;59.58;4.30;;;2.10;1.00;;;;;;5093239;28;20782;-67
2021/01/19 00:07:45;;;;;;;57.30;3.50;;;2.20;1.00;;;;;;5093490;28;20204;-67
2021/01/19 00:10:12;;;;;;;58.05;5.18;;;2.20;1.00;;;;;;5093292;28;20595;-67
2021/01/19 00:12:38;;;;;;;57.53;3.90;;;2.20;1.00;;;;;;5093275;28;20208;-67
2021/01/19 00:15:07;;;;;;;58.05;4.47;;;2.30;1.00;;;;;;5093189;28;20701;-67
2021/01/19 00:17:33;;;;;;;58.33;3.80;;;2.20;1.00;;;;;;5093114;28;20204;-67
2021/01/19 00:20:00;;;;;;;56.22;3.35;;;2.20;1.00;;;;;;5093410;28;20239;-67
2021/01/19 00:22:27;;;;;;;58.55;4.43;;;2.30;1.00;;;;;;5092853;28;20292;-67
2021/01/19 00:24:53;;;;;;;57.38;3.50;;;2.30;1.00;;;;;;5092928;28;20281;-67
2021/01/19 00:27:19;;;;;;;56.72;3.60;;;2.30;1.00;;;;;;5092950;28;20693;-68
2021/01/19 00:29:46;;;;;;;60.22;4.60;;;2.40;1.00;;;;;;5093002;28;20204;-67
2021/01/19 00:32:12;;;;;;;78.75;5.03;;;2.30;1.00;;;;;;5092775;28;20217;-67
2021/01/19 00:34:38;;;;;;;57.08;4.35;;;2.30;1.00;;;;;;5093002;28;20884;-67
2021/01/19 00:37:06;;;;;;;58.80;4.85;;;2.30;1.00;;;;;;5092843;28;20240;-68
2021/01/19 00:39:32;;;;;;;57.08;3.85;;;2.20;1.00;;;;;;5092857;28;20246;-68
2021/01/19 00:41:58;;;;;;;58.30;4.68;;;2.20;1.00;;;;;;5092753;28;20204;-68
2021/01/19 00:44:25;;;;;;;56.45;4.28;;;2.20;1.00;;;;;;5092470;28;20274;-68
2021/01/19 00:46:52;;;;;;;59.72;4.65;;;2.20;1.00;;;;;;5092552;28;20211;-68
2021/01/19 00:49:19;;;;;;;58.25;4.05;;;2.10;1.00;;;;;;5092794;28;20617;-67
2021/01/19 00:51:45;;;;;;;57.70;5.00;;;2.10;1.00;;;;;;5092831;28;20452;-68
2021/01/19 00:54:12;;;;;;;62.42;5.00;;;2.10;1.00;;;;;;5092584;28;20281;-68
2021/01/19 00:56:40;;;;;;;57.92;4.40;;;2.10;1.00;;;;;;5092691;28;20204;-68
2021/01/19 00:59:06;;;;;;;61.20;4.55;;;2.20;1.00;;;;;;5092337;28;20574;-68
2021/01/19 01:01:33;;;;;;;58.00;3.92;;;2.20;1.00;;;;;;5092774;28;20212;-68
2021/01/19 01:04:00;;;;;;;57.47;4.10;;;2.10;1.00;;;;;;5092067;28;20266;-68
2021/01/19 01:06:26;;;;;;;57.10;4.20;;;2.20;1.00;;;;;;5092190;28;20244;-68
2021/01/19 01:08:53;;;;;;;58.30;4.95;;;2.10;1.00;;;;;;5092343;28;20204;-68
2021/01/19 01:11:20;;;;;;;59.78;4.53;;;2.10;1.00;;;;;;5092247;28;20693;-68
2021/01/19 01:13:46;;;;;;;57.60;3.92;;;2.00;1.00;;;;;;5091946;28;20200;-68
2021/01/19 01:16:13;;;;;;;57.45;4.95;;;2.10;1.00;;;;;;5092314;28;20204;-68
2021/01/19 01:18:39;;;;;;;63.78;4.15;;;2.00;1.00;;;;;;5092024;28;20243;-68
2021/01/19 01:21:10;;;;;;;58.65;4.40;;;2.00;1.00;;;;;;5092288;28;20211;-68
2021/01/19 01:23:37;;;;;;;57.80;4.60;;;1.90;1.00;;;;;;5091687;28;20216;-68
2021/01/19 01:26:03;;;;;;;57.42;4.25;;;1.90;1.00;;;;;;5091987;28;20252;-68
2021/01/19 01:28:30;;;;;;;56.47;3.72;;;1.80;1.00;;;;;;5092151;28;20239;-68
2021/01/19 01:30:57;;;;;;;59.70;4.68;;;1.80;1.00;;;;;;5092181;28;20257;-68
2021/01/19 01:33:23;;;;;;;58.08;4.85;;;1.70;1.00;;;;;;5091955;28;20203;-68
2021/01/19 01:35:49;;;;;;;60.90;4.78;;;1.70;1.00;;;;;;5091858;28;20224;-68
2021/01/19 01:38:16;;;;;;;57.50;4.40;;;1.60;1.00;;;;;;5091973;28;20208;-68
2021/01/19 01:40:42;;;;;;;57.17;3.85;;;1.60;1.00;;;;;;5091825;28;20626;-67
2021/01/19 01:43:13;;;;;;;56.22;3.67;;;1.50;1.00;;;;;;5091760;28;20299;-68
2021/01/19 01:45:41;;;;;;;59.67;4.45;;;1.50;1.00;;;;;;5092333;28;20226;-68
2021/01/19 01:48:09;;;;;;;56.05;3.72;;;1.50;1.00;;;;;;5091988;28;20200;-68
2021/01/19 01:50:37;;;;;;;60.10;4.25;;;1.40;1.00;;;;;;5091823;28;20247;-67
2021/01/19 01:53:03;;;;;;;57.75;4.72;;;1.40;1.00;;;;;;5091562;28;20204;-68
2021/01/19 01:55:30;;;;;;;57.42;3.70;;;1.40;1.00;;;;;;5091444;28;20648;-67
2021/01/19 01:57:56;;;;;;;57.95;4.13;;;1.40;1.00;;;;;;5091853;28;20252;-68
2021/01/19 02:00:23;;;;;;;59.65;4.57;;;1.50;1.00;;;;;;5091930;28;20226;-68
2021/01/19 02:02:51;;;;;;;59.15;4.35;;;1.40;1.00;;;;;;5091622;28;20204;-68
2021/01/19 02:05:18;;;;;;;59.00;4.60;;;1.40;1.00;;;;;;5091413;28;20236;-68
2021/01/19 02:07:59;;;;;;;58.72;4.78;;;1.40;1.00;;;;;;5091467;28;20752;-68
2021/01/19 02:10:32;;;;;;;57.90;4.68;;;1.40;1.00;;;;;;5091839;28;20208;-68
2021/01/19 02:13:11;;;;;;;59.03;5.20;;;1.40;1.00;;;;;;5091641;28;20209;-68
2021/01/19 02:15:45;;;;;;;57.20;4.65;;;1.30;1.00;;;;;;5091569;28;20231;-67
2021/01/19 02:18:28;;;;;;;59.10;4.07;;;1.30;1.00;;;;;;5091597;28;20215;-67
2021/01/19 02:21:10;;;;;;;56.92;4.05;;;1.30;1.00;;;;;;5091685;28;20675;-68
2021/01/19 02:23:43;;;;;;;59.00;4.53;;;1.20;1.00;;;;;;5091393;28;20235;-68
2021/01/19 02:26:40;;;;;;;56.05;3.83;;;1.20;1.00;;;;;;5091426;28;20224;-67
2021/01/19 02:29:23;;;;;;;60.47;4.72;;;1.20;1.00;;;;;;5091549;28;20208;-67
2021/01/19 02:32:03;;;;;;;58.47;4.65;;;1.20;1.00;;;;;;5091442;28;20211;-68
2021/01/19 02:34:37;;;;;;;57.83;4.53;;;1.10;1.00;;;;;;5093899;28;20236;-68
2021/01/19 02:37:09;;;;;;;57.95;4.00;;;1.10;1.00;;;;;;5095516;28;20231;-68
2021/01/19 02:39:42;;;;;;;62.40;4.95;;;1.00;1.00;;;;;;5095251;28;20208;-68
2021/01/19 02:42:10;;;;;;;57.70;4.63;;;1.00;1.00;;;;;;5095128;28;20215;-68
2021/01/19 02:44:39;;;;;;;58.35;4.57;;;1.00;1.00;;;;;;5095272;28;20234;-68
2021/01/19 02:47:06;;;;;;;56.60;4.05;;;0.90;1.00;;;;;;5094944;28;20219;-68
2021/01/19 02:49:33;;;;;;;57.88;4.28;;;0.90;1.00;;;;;;5094783;28;20223;-68
2021/01/19 02:52:01;;;;;;;61.75;5.18;;;0.90;1.00;;;;;;5095013;28;20662;-68
2021/01/19 02:54:29;;;;;;;57.60;4.03;;;0.90;1.00;;;;;;5094903;28;20217;-68
2021/01/19 02:57:09;;;;;;;60.45;4.97;;;0.80;1.00;;;;;;5094670;28;20679;-68
2021/01/19 02:59:48;;;;;;;58.65;4.55;;;0.80;1.00;;;;;;5094846;28;20262;-68
2021/01/19 03:02:20;;;;;;;59.35;5.47;;;0.80;1.00;;;;;;5094529;28;20208;-68
2021/01/19 03:04:48;;;;;;;57.80;4.30;;;0.80;1.00;;;;;;5094560;28;20238;-67
2021/01/19 03:07:16;;;;;;;56.97;3.90;;;0.80;1.00;;;;;;5094645;28;20655;-68
2021/01/19 03:09:48;;;;;;;63.75;4.22;;;0.90;1.00;;;;;;5094564;28;20235;-68
2021/01/19 03:12:15;;;;;;;59.20;4.90;;;0.90;1.00;;;;;;5094424;28;20200;-67
2021/01/19 03:14:42;;;;;;;59.13;4.70;;;0.90;1.00;;;;;;5094227;28;20224;-67
2021/01/19 03:17:10;;;;;;;58.85;4.38;;;0.90;1.00;;;;;;5094498;28;20211;-68
2021/01/19 03:19:39;;;;;;;57.38;4.32;;;1.00;1.00;;;;;;5094375;28;20233;-68
2021/01/19 03:22:05;;;;;;;58.47;4.88;;;1.00;1.00;;;;;;5094481;28;20233;-68
2021/01/19 03:24:32;;;;;;;57.97;5.15;;;1.00;1.00;;;;;;5094138;28;20239;-68
2021/01/19 03:26:58;;;;;;;60.00;5.00;;;1.00;1.00;;;;;;5094075;28;20201;-68
2021/01/19 03:29:25;;;;;;;57.08;4.20;;;1.10;1.00;;;;;;5094291;28;20208;-68
2021/01/19 03:31:51;;;;;;;57.10;4.15;;;1.20;1.00;;;;;;5094110;28;20620;-68
2021/01/19 03:34:18;;;;;;;56.85;4.05;;;1.20;1.00;;;;;;5093957;28;20221;-68
2021/01/19 03:36:45;;;;;;;59.08;4.65;;;1.30;1.00;;;;;;5093974;28;20200;-67
2021/01/19 03:39:11;;;;;;;58.97;3.95;;;1.30;1.00;;;;;;5094320;28;20205;-68
2021/01/19 03:41:38;;;;;;;57.97;4.20;;;1.30;1.00;;;;;;5096084;28;20595;-67
2021/01/19 03:44:05;;;;;;;60.30;4.18;;;1.40;1.00;;;;;;5093973;28;20232;-68
2021/01/19 03:46:31;;;;;;;60.15;4.32;;;1.50;1.00;;;;;;5093348;28;20200;-68
2021/01/19 03:48:58;;;;;;;58.83;4.05;;;1.50;1.00;;;;;;5093767;28;20200;-68
2021/01/19 03:51:24;;;;;;;59.60;4.00;;;1.50;1.00;;;;;;5093775;28;20204;-68
2021/01/19 03:53:52;;;;;;;59.75;4.05;;;1.50;1.00;;;;;;5093433;28;20204;-68
2021/01/19 03:56:19;;;;;;;56.83;3.85;;;1.60;1.00;;;;;;5093516;28;20204;-68
2021/01/19 03:58:46;;;;;;;56.92;3.92;;;1.60;1.00;;;;;;5093713;28;20238;-68
2021/01/19 04:01:12;;;;;;;58.90;4.43;;;1.70;1.00;;;;;;5093704;28;20254;-67
2021/01/19 04:03:38;;;;;;;59.95;4.00;;;1.70;1.00;;;;;;5093380;28;20691;-68
2021/01/19 04:06:06;;;;;;;58.85;4.03;;;1.70;1.00;;;;;;5093185;28;20236;-68
2021/01/19 04:08:32;;;;;;;60.30;4.07;;;1.70;1.00;;;;;;5093812;28;20609;-68
2021/01/19 04:11:00;;;;;;;64.22;4.60;;;1.70;1.00;;;;;;5093312;28;20610;-68
2021/01/19 04:13:26;;;;;;;56.53;4.25;;;1.70;1.00;;;;;;5093115;28;20675;-68
2021/01/19 04:15:53;;;;;;;57.58;4.78;;;1.70;1.00;;;;;;5093243;28;20711;-68
2021/01/19 04:18:20;;;;;;;58.05;4.30;;;1.70;1.00;;;;;;5093139;28;20254;-68
2021/01/19 04:20:46;;;;;;;65.10;5.10;;;1.80;1.00;;;;;;5093176;28;20211;-68
2021/01/19 04:23:14;;;;;;;56.70;4.20;;;1.70;1.00;;;;;;5092857;28;20208;-68
2021/01/19 04:25:41;;;;;;;57.70;4.70;;;1.70;1.00;;;;;;5093117;28;20227;-68
2021/01/19 04:28:08;;;;;;;59.80;4.32;;;1.60;1.00;;;;;;5093177;28;20575;-68
2021/01/19 04:30:34;;;;;;;58.72;4.43;;;1.60;1.00;;;;;;5092956;28;20286;-68
2021/01/19 04:33:00;;;;;;;58.70;5.10;;;1.60;1.00;;;;;;5092791;28;20200;-68
2021/01/19 04:35:27;;;;;;;61.40;4.55;;;1.60;1.00;;;;;;5092718;28;20250;-68
2021/01/19 04:37:53;;;;;;;58.70;4.18;;;1.60;1.00;;;;;;5092580;28;20204;-68
2021/01/19 04:40:20;;;;;;;62.08;4.90;;;1.50;1.00;;;;;;5093045;28;20227;-68
2021/01/19 04:42:46;;;;;;;57.90;4.30;;;1.50;1.00;;;;;;5092803;28;20261;-68
2021/01/19 04:45:14;;;;;;;60.10;5.28;;;1.50;1.00;;;;;;5092504;28;20772;-68
2021/01/19 04:47:40;;;;;;;61.35;4.60;;;1.40;1.00;;;;;;5092605;28;20219;-67
2021/01/19 04:50:09;;;;;;;58.20;4.30;;;1.40;1.00;;;;;;5092657;28;20212;-67
2021/01/19 04:52:35;;;;;;;58.30;4.57;;;1.30;1.00;;;;;;5092356;28;20200;-67
2021/01/19 04:55:08;;;;;;;57.50;4.55;;;1.30;1.00;;;;;;5092646;28;20239;-67
2021/01/19 04:57:35;;;;;;;57.58;4.35;;;1.40;1.00;;;;;;5091738;28;20200;-68
2021/01/19 05:00:07;;;;;;;58.05;4.15;;;1.40;1.00;;;;;;5092541;28;20214;-67
2021/01/19 05:03:00;;;;;;;60.13;3.78;;;1.40;1.00;;;;;;5092212;28;20211;-68
2021/01/19 05:05:57;;;;;;;57.55;4.65;;;1.40;1.00;;;;;;5120530;22;20295;-67
2021/01/19 05:08:28;;;;;;;58.50;5.20;;;1.40;1.00;;;;;;5112579;28;20677;-67
2021/01/19 05:11:20;;;;;;;57.60;4.32;;;1.50;1.00;;;;;;5112768;28;20731;-67
2021/01/19 05:13:55;;;;;;;57.53;4.70;;;1.50;1.00;;;;;;5112697;28;20228;-67
2021/01/19 05:16:25;;;;;;;57.35;4.47;;;1.40;1.00;;;;;;5112551;28;20271;-67
2021/01/19 05:18:53;;;;;;;57.00;3.92;;;1.40;1.00;;;;;;5112768;28;20211;-67
2021/01/19 05:21:19;;;;;;;56.70;3.70;;;1.30;1.00;;;;;;5112455;28;20207;-67
2021/01/19 05:23:46;;;;;;;57.83;4.20;;;1.30;1.00;;;;;;5112137;28;20220;-67
2021/01/19 05:26:14;;;;;;;60.10;4.50;;;1.20;1.00;;;;;;5112523;28;20226;-67
2021/01/19 05:28:43;;;;;;;58.25;3.90;;;1.10;1.00;;;;;;5112533;28;20207;-67
2021/01/19 05:31:21;;;;;;;59.83;4.35;;;1.10;1.00;;;;;;5112446;28;20207;-67
2021/01/19 05:34:09;;;;;;;57.40;4.03;;;1.10;1.00;;;;;;5112287;28;20214;-67
2021/01/19 05:36:41;;;;;;;57.60;3.72;;;1.10;1.00;;;;;;5112238;28;20762;-67
2021/01/19 05:39:10;;;;;;;59.05;4.38;;;1.10;1.00;;;;;;5112424;28;20212;-67
2021/01/19 05:41:38;;;;;;;59.35;4.18;;;1.10;1.00;;;;;;5112333;28;20624;-67
2021/01/19 05:44:17;;;;;;;58.47;4.72;;;1.10;1.00;;;;;;5112010;28;20223;-67
2021/01/19 05:46:46;;;;;;;60.22;3.72;;;1.10;1.00;;;;;;5111958;28;20650;-67
2021/01/19 05:49:15;;;;;;;61.97;4.20;;;1.00;1.00;;;;;;5112328;28;20211;-67
2021/01/19 05:51:46;;;;;;;57.92;4.60;;;1.00;1.00;;;;;;5112151;28;20208;-67
2021/01/19 05:54:21;;;;;;;58.08;4.28;;;1.00;1.00;;;;;;5112104;28;20196;-67
2021/01/19 05:56:49;;;;;;;58.65;4.90;;;0.90;1.00;;;;;;5111993;28;20708;-67
2021/01/19 05:59:28;;;;;;;60.15;3.72;;;0.90;1.00;;;;;;5112045;28;20203;-67
2021/01/19 06:02:03;;;;;;;58.30;4.55;;;0.90;1.00;;;;;;5111861;28;20700;-67
2021/01/19 06:04:33;;;;;;;58.00;4.07;;;0.80;1.00;;;;;;5112223;28;20226;-67
2021/01/19 06:07:00;;;;;;;59.40;4.25;;;0.90;1.00;;;;;;5111913;28;20238;-68
2021/01/19 06:09:26;;;;;;;58.45;4.28;;;0.90;1.00;;;;;;5114308;28;20331;-67
2021/01/19 06:11:53;;;;;;;56.90;3.90;;;1.00;1.00;;;;;;5116372;28;20214;-67
2021/01/19 06:14:23;;;;;;;58.78;4.47;;;1.00;1.00;;;;;;5116147;28;20210;-67
2021/01/19 06:16:49;;;;;;;56.50;3.80;;;1.10;1.00;;;;;;5115765;28;20258;-67
2021/01/19 06:19:30;;;;;;;59.50;5.35;;;1.10;1.00;;;;;;5116064;28;20235;-67
2021/01/19 06:21:57;;;;;;;57.97;4.57;;;1.20;1.00;;;;;;5115775;28;20561;-68
2021/01/19 06:24:37;;;;;;;56.95;3.78;;;1.20;1.00;;;;;;5115936;28;20654;-68
2021/01/19 06:27:05;;;;;;;57.75;4.00;;;1.10;1.00;;;;;;5115910;28;20259;-67
2021/01/19 06:29:32;;;;;;;57.78;4.55;;;1.20;1.00;;;;;;5115778;28;20585;-67
2021/01/19 06:32:00;;;;;;;57.45;4.20;;;1.20;1.00;;;;;;5115625;28;20667;-67
2021/01/19 06:34:33;;;;;;;57.58;4.57;;;1.20;1.00;;;;;;5115741;28;20228;-67
2021/01/19 06:37:01;;;;;;;59.45;4.25;;;1.10;1.00;;;;;;5115356;28;20227;-67
2021/01/19 06:39:33;;;;;;;64.00;4.05;;;1.10;1.00;;;;;;5115438;28;20256;-67
2021/01/19 06:42:11;;;;;;;58.13;4.32;;;1.00;1.00;;;;;;5115474;28;20252;-67
2021/01/19 06:44:41;;;;;;;58.78;4.28;;;1.00;1.00;;;;;;5115382;28;20211;-67
2021/01/19 06:47:08;;;;;;;58.50;4.53;;;0.90;1.00;;;;;;5115238;28;20253;-67
2021/01/19 06:49:36;;;;;;;59.90;4.70;;;0.90;1.00;;;;;;5115494;28;20210;-67
2021/01/19 06:52:10;;;;;;;59.80;4.38;;;0.90;1.00;;;;;;5115338;28;20213;-67
2021/01/19 06:55:04;;;;;;;57.40;3.97;;;0.90;1.00;;;;;;5115193;28;20739;-66
2021/01/19 06:57:33;;;;;;;59.83;4.40;;;0.90;1.00;;;;;;5115178;28;20207;-68
2021/01/19 07:00:08;;;;;;;58.05;4.18;;;0.90;1.00;;;;;;5115394;28;20436;-67
2021/01/19 07:02:37;;;;;;;58.30;4.30;;;0.80;1.00;;;;;;5115269;28;20203;-67
2021/01/19 07:05:09;;;;;;;59.60;4.70;;;0.80;1.00;;;;;;5114774;28;20259;-67
2021/01/19 07:07:41;;;;;;;59.50;4.95;;;0.70;1.00;;;;;;5114974;28;20208;-67
2021/01/19 07:10:11;;;;;;;58.15;4.57;;;0.70;1.00;;;;;;5114887;28;20307;-67
2021/01/19 07:12:57;;;;;;;59.42;4.53;;;0.60;1.00;;;;;;5115002;28;20212;-67
2021/01/19 07:15:51;;;;;;;59.50;4.38;;;0.60;1.00;;;;;;5115088;28;20304;-67
2021/01/19 07:18:23;;;;;;;58.20;4.90;;;0.50;1.00;;;;;;5114746;28;20304;-67
2021/01/19 07:21:03;;;;;;;59.03;4.35;;;0.60;1.00;;;;;;5113973;28;20204;-67
2021/01/19 07:23:46;;;;;;;60.15;4.35;;;0.60;1.00;;;;;;5114593;28;20272;-67
2021/01/19 07:26:13;;;;;;;59.35;5.57;;;0.60;1.00;;;;;;5114440;28;20227;-67
2021/01/19 07:28:41;;;;;;;59.45;4.38;;;0.50;1.00;;;;;;5114420;28;20529;-67
2021/01/19 07:31:07;;;;;;;68.88;5.38;;;0.50;1.00;;;;;;5114604;28;20214;-67
2021/01/19 07:33:37;;;;;;;57.97;3.60;;;0.60;1.00;;;;;;5114319;28;20207;-67
2021/01/19 07:36:05;;;;;;;58.95;4.10;;;0.70;1.00;;;;;;5114539;28;20223;-67
2021/01/19 07:38:31;;;;;;;65.05;4.57;;;0.80;1.00;;;;;;5114478;28;20208;-67
2021/01/19 07:40:58;;;;;;;61.00;4.40;;;0.80;1.00;;;;;;5114644;28;20211;-67
2021/01/19 07:43:25;;;;;;;58.75;4.32;;;0.90;1.00;;;;;;5113994;28;20329;-67
2021/01/19 07:45:53;;;;;;;60.03;4.32;;;0.90;1.00;;;;;;5114242;28;20224;-67
2021/01/19 07:48:30;;;;;;;57.40;5.47;;;1.00;1.00;;;;;;5114314;28;20669;-67
2021/01/19 07:50:56;;;;;;;57.60;4.03;;;1.00;1.00;;;;;;5114192;28;20198;-67
2021/01/19 07:53:23;;;;;;;60.00;4.38;;;1.10;1.00;;;;;;5114021;28;20207;-67
2021/01/19 07:55:49;;;;;;;59.53;3.97;;;1.10;1.00;;;;;;5113843;28;20306;-67
2021/01/19 07:58:18;;;;;;;61.35;4.00;;;1.10;1.00;;;;;;5114177;28;20253;-67
2021/01/19 08:00:47;;;;;;;57.75;4.40;;;1.20;1.00;;;;;;5114140;28;20603;-67
2021/01/19 08:03:13;;;;;;;56.83;3.95;;;1.20;1.00;;;;;;5113913;28;20242;-67
2021/01/19 08:05:40;;;;;;;57.70;4.05;;;1.30;1.00;;;;;;5113606;28;20601;-67
2021/01/19 08:08:14;;;;;;;58.05;4.00;;;1.30;1.00;;;;;;5113822;28;20333;-67
2021/01/19 08:10:40;;;;;;;58.92;4.75;;;1.40;1.00;;;;;;5114053;28;20625;-67
2021/01/19 08:13:17;;;;;;;57.95;4.35;;;1.50;1.00;;;;;;5113784;28;20253;-67
2021/01/19 08:15:48;;;;;;;63.03;4.50;;;1.60;1.00;;;;;;5113655;28;20223;-67
2021/01/19 08:18:17;;;;;;;58.17;4.25;;;1.80;1.00;;;;;;5113683;28;20734;-68
2021/01/19 08:20:45;;;;;;;59.85;4.47;;;1.90;1.00;;;;;;5113434;28;20751;-67
2021/01/19 08:23:13;;;;;;;60.92;4.78;;;2.10;1.00;;;;;;5113370;28;20690;-67
2021/01/19 08:25:40;;;;;;;58.63;4.72;;;2.20;1.00;;;;;;5113548;28;20310;-67
2021/01/19 08:28:08;;;;;;;61.05;5.28;;;2.20;1.00;;;;;;5113644;28;20745;-67
2021/01/19 08:30:38;;;;;;;61.65;5.10;;;2.30;1.00;;;;;;5113325;28;20239;-67
2021/01/19 08:33:05;;;;;;;57.75;3.90;;;2.40;1.00;;;;;;5113274;28;20243;-67
2021/01/19 08:35:32;;;;;;;58.63;4.57;;;2.50;1.00;;;;;;5113572;28;20234;-67
2021/01/19 08:38:00;;;;;;;57.28;3.60;;;2.60;1.00;;;;;;5113368;28;20581;-67
2021/01/19 08:40:28;;;;;;;64.10;3.72;;;2.70;1.00;;;;;;5113319;28;20640;-67
2021/01/19 08:42:56;;;;;;;60.83;4.22;;;2.80;1.00;;;;;;5113028;28;20212;-67
2021/01/19 08:45:27;;;;;;;57.10;3.42;;;2.90;1.00;;;;;;5112909;28;20262;-67
2021/01/19 08:47:57;;;;;;;56.90;3.92;;;3.00;1.00;;;;;;5112879;28;20670;-67
2021/01/19 08:50:24;;;;;;;61.50;4.45;;;3.20;1.00;;;;;;5113219;28;20216;-67
2021/01/19 08:52:51;;;;;;;58.10;4.20;;;3.30;1.00;;;;;;5113030;28;20204;-67
2021/01/19 08:55:19;;;;;;;58.25;3.67;;;3.40;1.00;;;;;;5113020;28;20348;-67
2021/01/19 08:57:49;;;;;;;57.20;3.60;;;3.60;1.00;;;;;;5112938;28;20295;-67
2021/01/19 09:00:27;;;;;;;58.00;3.90;;;3.70;1.00;;;;;;5112805;28;20199;-67
2021/01/19 09:02:55;;;;;;;57.03;3.72;;;3.80;1.00;;;;;;5112971;28;20213;-67
2021/01/19 09:05:26;;;;;;;58.15;3.95;;;3.90;1.00;;;;;;5112603;28;20366;-67
2021/01/19 09:07:52;;;;;;;59.85;4.65;;;3.90;1.00;;;;;;5112703;28;20257;-68
2021/01/19 09:10:23;;;;;;;57.83;3.70;;;3.90;1.00;;;;;;5112515;28;20686;-67
2021/01/19 09:12:50;;;;;;;56.97;4.00;;;3.90;1.00;;;;;;5112479;28;20207;-67
2021/01/19 09:15:17;;;;;;;56.40;3.35;;;3.90;1.00;;;;;;5112807;28;20347;-67
2021/01/19 09:17:52;;;;;;;57.63;3.80;;;3.90;1.00;;;;;;5112737;28;20281;-67
2021/01/19 09:20:19;;;;;;;57.75;3.45;;;3.90;1.00;;;;;;5112828;28;20209;-69
2021/01/19 09:22:46;;;;;;;59.25;4.22;;;3.70;1.00;;;;;;5112416;28;20246;-67
2021/01/19 09:25:13;;;;;;;58.90;4.28;;;3.60;1.00;;;;;;5112052;28;20236;-67
2021/01/19 09:27:40;;;;;;;59.78;4.22;;;3.60;1.00;;;;;;5112379;28;20252;-67
2021/01/19 09:30:09;;;;;;;60.00;3.70;;;3.50;1.00;;;;;;5112791;28;20207;-68
2021/01/19 09:32:38;;;;;;;59.55;3.80;;;3.60;1.00;;;;;;5111928;28;20253;-67
2021/01/19 09:35:06;;;;;;;57.70;4.05;;;3.50;1.00;;;;;;5110133;28;20227;-67
2021/01/19 09:37:33;;;;;;;58.25;4.03;;;3.50;1.00;;;;;;5106615;28;20567;-66
2021/01/19 09:39:59;;;;;;;59.05;5.20;;;3.40;1.00;;;;;;5111820;28;20212;-66
2021/01/19 09:42:26;;;;;;;60.63;4.70;;;3.30;1.00;;;;;;5111955;28;20210;-66
2021/01/19 09:44:53;;;;;;;58.42;4.93;;;3.20;1.00;;;;;;5108551;28;20223;-68
2021/01/19 09:47:24;;;;;;;58.17;4.57;;;3.20;1.00;;;;;;5104932;28;20585;-67
2021/01/19 09:49:52;;;;;;;59.30;4.72;;;3.20;1.00;;;;;;5091642;28;20210;-67
2021/01/19 09:52:19;;;;;;;59.70;5.05;;;3.20;1.00;;;;;;5091536;28;20242;-67
2021/01/19 09:54:47;;;;;;;57.85;4.93;;;3.20;1.00;;;;;;5091361;28;20532;-67
2021/01/19 09:57:13;;;;;;;58.53;4.80;;;3.20;1.00;;;;;;5091806;28;20204;-67
2021/01/19 09:59:40;;;;;;;58.75;5.45;;;3.20;1.00;;;;;;5091642;28;20214;-67
2021/01/19 10:02:06;;;;;;;59.03;5.03;;;3.20;1.00;;;;;;5091268;28;20204;-67
2021/01/19 10:04:33;;;;;;;57.90;4.57;;;3.20;1.00;;;;;;5091463;28;20281;-67
2021/01/19 10:07:05;;;;;;;62.58;5.20;;;3.30;1.00;;;;;;5091069;28;20228;-67
2021/01/19 10:09:31;;;;;;;62.15;5.15;;;3.30;1.00;;;;;;5091290;28;20200;-67
2021/01/19 10:12:02;;;;;;;58.80;4.95;;;3.40;1.00;;;;;;5091383;28;20215;-67
2021/01/19 10:14:34;;;;;;;57.90;4.60;;;3.50;1.00;;;;;;5091296;28;20203;-68
2021/01/19 10:17:01;;;;;;;59.75;4.70;;;3.50;1.00;;;;;;5103685;28;20269;-68
2021/01/19 10:19:29;;;;;;;60.92;5.38;;;3.50;1.00;;;;;;5095067;28;20208;-67
2021/01/19 10:21:56;;;;;;;58.25;4.72;;;3.60;1.00;;;;;;5091379;28;20205;-67
2021/01/19 10:24:24;;;;;;;59.45;5.65;;;3.60;1.00;;;;;;5091369;28;20250;-67
2021/01/19 10:27:03;;;;;;;65.82;5.35;;;3.60;1.00;;;;;;5091189;28;20275;-67
2021/01/19 10:29:31;;;;;;;66.15;5.72;;;3.60;1.00;;;;;;5091322;28;20687;-67
2021/01/19 10:32:02;;;;;;;61.85;5.93;;;3.60;1.00;;;;;;5091002;28;20295;-67
2021/01/19 10:34:29;;;;;;;58.60;5.10;;;3.60;1.00;;;;;;5091100;28;20685;-67
2021/01/19 10:36:57;;;;;;;60.67;5.40;;;3.70;1.00;;;;;;5091201;28;20281;-68
2021/01/19 10:39:25;;;;;;;60.05;5.47;;;3.70;1.00;;;;;;5091148;28;20230;-67
2021/01/19 10:41:52;;;;;;;60.13;5.18;;;3.60;1.00;;;;;;5090969;28;20215;-68
2021/01/19 10:44:21;;;;;;;58.17;4.90;;;3.60;1.00;;;;;;5090975;28;20725;-68
2021/01/19 10:46:56;;;;;;;60.72;6.65;;;3.60;1.00;;;;;;5094090;28;20323;-67
2021/01/19 10:49:26;;;;;;;61.22;5.75;;;3.50;1.00;;;;;;5103358;28;20191;-68
2021/01/19 10:51:53;;;;;;;60.83;6.10;;;3.50;1.00;;;;;;5091034;28;20204;-67
2021/01/19 10:54:19;;;;;;;64.40;6.47;;;3.40;1.00;;;;;;5090877;28;20208;-68
2021/01/19 10:56:47;;;;;;;62.65;5.35;;;3.40;1.00;;;;;;5093392;28;20236;-67
2021/01/19 10:59:14;;;;;;;59.78;5.72;;;3.30;1.00;;;;;;5094383;28;20223;-67
2021/01/19 11:01:41;;;;;;;58.35;4.93;;;3.30;1.00;;;;;;5094707;28;20652;-67
2021/01/19 11:04:07;;;;;;;59.97;6.22;;;3.30;1.00;;;;;;5094384;28;20228;-67
2021/01/19 11:06:35;;;;;;;60.33;6.25;;;3.30;1.00;;;;;;5094787;28;20266;-67
2021/01/19 11:09:03;;;;;;;62.50;7.68;;;3.30;1.00;;;;;;5094311;28;20265;-67
2021/01/19 11:11:29;;;;;;;64.63;6.35;;;3.30;1.00;;;;;;5094275;28;20210;-67
2021/01/19 11:14:02;;;;;;;60.25;5.82;;;3.30;1.00;;;;;;5094302;28;20260;-66
2021/01/19 11:16:31;;;;;;;63.55;6.68;;;3.30;1.00;;;;;;5108813;28;20224;-67
2021/01/19 11:19:00;;;;;;;60.80;5.88;;;3.40;1.00;;;;;;5114745;28;20247;-67
2021/01/19 11:21:27;;;;;;;60.33;6.85;;;3.40;1.00;;;;;;5114494;28;20203;-67
2021/01/19 11:23:54;;;;;;;63.22;6.50;;;3.50;1.00;;;;;;5114128;28;20207;-68
2021/01/19 11:26:21;;;;;;;65.65;7.93;;;3.50;1.00;;;;;;5113442;28;20725;-67
2021/01/19 11:28:47;;;;;;;68.63;11.05;;;3.50;1.00;;;;;;5114419;28;20214;-67
2021/01/19 11:31:19;;;;;;;61.35;6.63;;;3.60;1.00;;;;;;5114648;28;20262;-68
2021/01/19 11:33:45;;;;;;;61.72;7.40;;;3.60;1.00;;;;;;5114402;28;20215;-67
2021/01/19 11:36:18;;;;;;;61.55;5.47;;;3.60;1.00;;;;;;5111620;28;20220;-67
2021/01/19 11:38:45;;;;;;;60.00;6.30;;;3.60;1.00;;;;;;5093809;28;20855;-67
2021/01/19 11:41:15;;;;;;;67.78;5.55;;;3.70;1.00;;;;;;5093763;28;20230;-66
2021/01/19 11:43:41;;;;;;;63.13;6.32;;;3.70;1.00;;;;;;5093125;28;20208;-68
2021/01/19 11:46:08;;;;;;;71.93;10.98;;;3.70;1.00;;;;;;5093678;28;20278;-69
2021/01/19 11:48:34;;;;;;;65.50;6.55;;;3.80;1.00;;;;;;5093805;28;20632;-68
2021/01/19 11:51:01;;;;;;;60.80;6.10;;;3.90;1.00;;;;;;5093354;28;20576;-68
2021/01/19 11:53:28;;;;;;;58.70;4.78;;;4.00;1.00;;;;;;5093100;28;20785;-67
2021/01/19 11:55:54;;;;;;;60.63;5.95;;;4.00;1.00;;;;;;5093840;28;20221;-68
2021/01/19 11:58:22;;;;;;;61.75;5.55;;;4.00;1.00;;;;;;5093789;28;20295;-67
2021/01/19 12:00:49;;;;;;;61.88;5.63;;;4.10;1.00;;;;;;5093494;28;20746;-67
2021/01/19 12:03:18;;;;;;;65.30;5.57;;;4.10;1.00;;;;;;5093279;28;20215;-68
2021/01/19 12:05:45;;;;;;;58.90;5.57;;;4.10;1.00;;;;;;5092800;28;20232;-68
2021/01/19 12:08:11;;;;;;;61.00;6.20;;;4.10;1.00;;;;;;5092903;28;20216;-68
2021/01/19 12:10:43;;;;;;;61.10;5.03;;;4.10;1.00;;;;;;5093144;28;20226;-68
2021/01/19 12:13:09;;;;;;;58.83;5.90;;;4.10;1.00;;;;;;5093092;28;20219;-68
2021/01/19 12:15:35;;;;;;;66.10;6.38;;;4.20;1.00;;;;;;5093075;28;20232;-69
2021/01/19 12:18:02;;;;;;;62.30;5.40;;;4.20;1.00;;;;;;5093055;28;20231;-68
2021/01/19 12:20:28;;;;;;;61.60;4.55;;;4.20;1.00;;;;;;5093062;28;20254;-68
2021/01/19 12:22:54;;;;;;;62.33;4.68;;;4.20;1.00;;;;;;5093125;28;20244;-68
2021/01/19 12:25:21;;;;;;;60.63;4.93;;;4.20;1.00;;;;;;5092743;28;20703;-68
2021/01/19 12:27:49;;;;;;;71.03;6.72;;;4.20;1.00;;;;;;5092942;28;20223;-67
2021/01/19 12:30:16;;;;;;;65.63;4.80;;;4.30;1.00;;;;;;5092810;28;20215;-68
2021/01/19 12:32:42;;;;;;;58.88;4.53;;;4.30;1.00;;;;;;5092754;28;20345;-69
2021/01/19 12:35:10;;;;;;;60.05;4.60;;;4.30;1.00;;;;;;5092632;28;20369;-68
2021/01/19 12:37:36;;;;;;;58.42;4.35;;;4.50;1.00;;;;;;5092889;28;20207;-67
2021/01/19 12:40:04;;;;;;;60.47;4.90;;;4.50;1.00;;;;;;5092949;28;20211;-68
2021/01/19 12:42:30;;;;;;;61.25;4.60;;;4.60;1.00;;;;;;5092510;28;20744;-68
2021/01/19 12:44:57;;;;;;;60.28;5.00;;;4.70;1.00;;;;;;5092520;28;20750;-69
2021/01/19 12:47:24;;;;;;;62.10;5.25;;;4.80;1.00;;;;;;5092395;28;20212;-68
2021/01/19 12:49:50;;;;;;;58.53;4.60;;;4.80;1.00;;;;;;5092459;28;20296;-68
2021/01/19 12:52:17;;;;;;;59.70;4.90;;;4.90;1.00;;;;;;5092293;28;20294;-68
2021/01/19 12:54:43;;;;;;;62.97;4.70;;;4.90;1.00;;;;;;5092643;28;20200;-69
2021/01/19 12:57:13;;;;;;;60.72;5.38;;;4.90;1.00;;;;;;5092252;28;20224;-69
2021/01/19 12:59:40;;;;;;;59.45;4.60;;;4.80;1.00;;;;;;5092205;28;20205;-68
2021/01/19 13:02:08;;;;;;;61.28;4.63;;;4.70;1.00;;;;;;5089147;28;20675;-68
2021/01/19 13:04:34;;;;;;;59.47;4.63;;;4.60;1.00;;;;;;5088862;28;20311;-68
2021/01/19 13:07:01;;;;;;;62.28;4.88;;;4.60;1.00;;;;;;5090519;28;20239;-68